sensor_id;sensor_type;location;lat;lon;timestamp;P1;durP1;ratioP1;P2;durP2;ratioP2
17504;SDS011;8870;50.950;11.762;2022-10-04T02:33:49;4.45;;;1.10;;
17504;SDS011;8870;50.950;11.762;2022-10-04T02:39:22;5.28;;;1.40;;
17504;SDS011;8870;50.950;11.762;2022-10-04T02:44:43;3.42;;;1.23;;
17504;SDS011;8870;50.950;11.762;2022-10-04T02:50:27;4.80;;;1.40;;
17504;SDS011;8870;50.950;11.762;2022-10-04T02:55:48;6.05;;;1.40;;
17504;SDS011;8870;50.950;11.762;2022-10-04T03:01:23;7.05;;;1.52;;
17504;SDS011;8870;50.950;11.762;2022-10-04T03:06:45;4.72;;;1.35;;
17504;SDS011;8870;50.950;11.762;2022-10-04T03:12:17;4.20;;;1.33;;
17504;SDS011;8870;50.950;11.762;2022-10-04T03:17:36;4.55;;;1.40;;
17504;SDS011;8870;50.950;11.762;2022-10-04T03:23:13;4.65;;;1.30;;
17504;SDS011;8870;50.950;11.762;2022-10-04T03:28:34;6.22;;;1.40;;
17504;SDS011;8870;50.950;11.762;2022-10-04T03:34:12;4.60;;;1.38;;
17504;SDS011;8870;50.950;11.762;2022-10-04T03:39:47;4.18;;;1.38;;
17504;SDS011;8870;50.950;11.762;2022-10-04T03:45:10;3.63;;;1.38;;
17504;SDS011;8870;50.950;11.762;2022-10-04T03:50:47;5.43;;;1.70;;
17504;SDS011;8870;50.950;11.762;2022-10-04T03:56:10;5.05;;;1.40;;
17504;SDS011;8870;50.950;11.762;2022-10-04T04:01:43;4.82;;;1.40;;
17504;SDS011;8870;50.950;11.762;2022-10-04T04:07:05;4.07;;;1.30;;
17504;SDS011;8870;50.950;11.762;2022-10-04T04:12:45;5.07;;;1.35;;
17504;SDS011;8870;50.950;11.762;2022-10-04T04:18:10;5.88;;;1.50;;
17504;SDS011;8870;50.950;11.762;2022-10-04T04:23:47;4.13;;;1.60;;
17504;SDS011;8870;50.950;11.762;2022-10-04T04:29:14;6.55;;;1.50;;
17504;SDS011;8870;50.950;11.762;2022-10-04T04:34:51;8.18;;;1.50;;
17504;SDS011;8870;50.950;11.762;2022-10-04T04:40:17;5.90;;;1.40;;
17504;SDS011;8870;50.950;11.762;2022-10-04T04:45:52;4.50;;;1.50;;
17504;SDS011;8870;50.950;11.762;2022-10-04T04:51:32;6.88;;;1.50;;
17504;SDS011;8870;50.950;11.762;2022-10-04T04:57:02;5.75;;;1.90;;
17504;SDS011;8870;50.950;11.762;2022-10-04T05:02:35;4.90;;;1.50;;
17504;SDS011;8870;50.950;11.762;2022-10-04T05:08:14;6.30;;;2.20;;
17504;SDS011;8870;50.950;11.762;2022-10-04T05:13:36;4.13;;;1.85;;
17504;SDS011;8870;50.950;11.762;2022-10-04T05:19:14;5.15;;;1.85;;
17504;SDS011;8870;50.950;11.762;2022-10-04T05:24:36;3.22;;;1.70;;
17504;SDS011;8870;50.950;11.762;2022-10-04T05:30:13;6.85;;;1.85;;
17504;SDS011;8870;50.950;11.762;2022-10-04T05:35:51;7.50;;;1.80;;
17504;SDS011;8870;50.950;11.762;2022-10-04T05:41:32;6.93;;;2.20;;
17504;SDS011;8870;50.950;11.762;2022-10-04T05:46:56;6.30;;;1.77;;
17504;SDS011;8870;50.950;11.762;2022-10-04T05:52:33;5.50;;;1.90;;
17504;SDS011;8870;50.950;11.762;2022-10-04T05:58:05;5.40;;;1.90;;
17504;SDS011;8870;50.950;11.762;2022-10-04T06:10:04;5.65;;;1.70;;
17504;SDS011;8870;50.950;11.762;2022-10-04T06:15:53;5.00;;;1.70;;
17504;SDS011;8870;50.950;11.762;2022-10-04T06:21:21;6.55;;;1.80;;
17504;SDS011;8870;50.950;11.762;2022-10-04T06:26:58;6.35;;;1.80;;
17504;SDS011;8870;50.950;11.762;2022-10-04T06:32:30;4.20;;;1.33;;
17504;SDS011;8870;50.950;11.762;2022-10-04T06:38:16;5.78;;;1.70;;
17504;SDS011;8870;50.950;11.762;2022-10-04T06:43:56;4.95;;;1.65;;
17504;SDS011;8870;50.950;11.762;2022-10-04T06:49:43;5.35;;;1.80;;
17504;SDS011;8870;50.950;11.762;2022-10-04T07:01:29;5.15;;;1.60;;
17504;SDS011;8870;50.950;11.762;2022-10-04T07:06:50;5.93;;;1.52;;
17504;SDS011;8870;50.950;11.762;2022-10-04T07:12:44;4.57;;;1.70;;
17504;SDS011;8870;50.950;11.762;2022-10-04T07:18:23;3.45;;;1.40;;
17504;SDS011;8870;50.950;11.762;2022-10-04T07:23:46;4.15;;;1.70;;
17504;SDS011;8870;50.950;11.762;2022-10-04T07:29:22;3.88;;;1.50;;
17504;SDS011;8870;50.950;11.762;2022-10-04T07:34:52;4.50;;;1.58;;
17504;SDS011;8870;50.950;11.762;2022-10-04T07:40:29;5.68;;;1.63;;
17504;SDS011;8870;50.950;11.762;2022-10-04T07:45:51;3.00;;;1.33;;
17504;SDS011;8870;50.950;11.762;2022-10-04T07:51:35;5.28;;;1.40;;
17504;SDS011;8870;50.950;11.762;2022-10-04T07:57:02;4.45;;;1.52;;
17504;SDS011;8870;50.950;11.762;2022-10-04T08:02:46;5.03;;;1.80;;
17504;SDS011;8870;50.950;11.762;2022-10-04T08:08:24;4.25;;;1.60;;
17504;SDS011;8870;50.950;11.762;2022-10-04T08:14:08;5.55;;;1.60;;
17504;SDS011;8870;50.950;11.762;2022-10-04T08:19:54;4.32;;;1.48;;
17504;SDS011;8870;50.950;11.762;2022-10-04T08:25:21;4.03;;;1.50;;
17504;SDS011;8870;50.950;11.762;2022-10-04T08:31:11;3.70;;;1.35;;
17504;SDS011;8870;50.950;11.762;2022-10-04T08:36:42;5.18;;;1.70;;
17504;SDS011;8870;50.950;11.762;2022-10-04T08:42:35;4.22;;;1.50;;
17504;SDS011;8870;50.950;11.762;2022-10-04T09:00:22;3.38;;;1.23;;
17504;SDS011;8870;50.950;11.762;2022-10-04T09:06:13;4.45;;;1.20;;
17504;SDS011;8870;50.950;11.762;2022-10-04T09:11:44;4.55;;;1.40;;
17504;SDS011;8870;50.950;11.762;2022-10-04T09:17:35;3.70;;;1.35;;
17504;SDS011;8870;50.950;11.762;2022-10-04T09:23:03;4.55;;;1.40;;
17504;SDS011;8870;50.950;11.762;2022-10-04T09:34:44;3.38;;;1.20;;
17504;SDS011;8870;50.950;11.762;2022-10-04T09:46:24;4.18;;;1.55;;
17504;SDS011;8870;50.950;11.762;2022-10-04T09:52:24;2.75;;;1.30;;
17504;SDS011;8870;50.950;11.762;2022-10-04T09:58:02;5.32;;;1.20;;
17504;SDS011;8870;50.950;11.762;2022-10-04T10:03:53;2.88;;;1.30;;
17504;SDS011;8870;50.950;11.762;2022-10-04T10:09:28;3.60;;;1.48;;
17504;SDS011;8870;50.950;11.762;2022-10-04T10:15:21;3.15;;;1.70;;
17504;SDS011;8870;50.950;11.762;2022-10-04T10:21:09;3.43;;;1.63;;
17504;SDS011;8870;50.950;11.762;2022-10-04T10:26:58;4.95;;;1.35;;
17504;SDS011;8870;50.950;11.762;2022-10-04T10:38:41;3.70;;;1.10;;
17504;SDS011;8870;50.950;11.762;2022-10-04T10:44:35;3.08;;;1.00;;
17504;SDS011;8870;50.950;11.762;2022-10-04T10:50:16;4.00;;;0.97;;
17504;SDS011;8870;50.950;11.762;2022-10-04T10:56:22;2.22;;;0.90;;
17504;SDS011;8870;50.950;11.762;2022-10-04T11:08:06;6.28;;;1.00;;
17504;SDS011;8870;50.950;11.762;2022-10-04T11:25:59;2.08;;;0.90;;
17504;SDS011;8870;50.950;11.762;2022-10-04T11:31:59;5.00;;;0.80;;
17504;SDS011;8870;50.950;11.762;2022-10-04T11:37:45;3.72;;;0.93;;
17504;SDS011;8870;50.950;11.762;2022-10-04T11:43:38;1.80;;;0.77;;
17504;SDS011;8870;50.950;11.762;2022-10-04T11:49:13;2.42;;;0.82;;
17504;SDS011;8870;50.950;11.762;2022-10-04T12:01:03;1.45;;;0.65;;
17504;SDS011;8870;50.950;11.762;2022-10-04T12:06:57;2.35;;;0.90;;
17504;SDS011;8870;50.950;11.762;2022-10-04T12:12:39;1.63;;;0.80;;
17504;SDS011;8870;50.950;11.762;2022-10-04T12:24:25;2.33;;;0.90;;
17504;SDS011;8870;50.950;11.762;2022-10-04T12:30:20;2.30;;;0.90;;
17504;SDS011;8870;50.950;11.762;2022-10-04T12:35:50;3.22;;;0.90;;
17504;SDS011;8870;50.950;11.762;2022-10-04T12:41:35;4.85;;;0.88;;
17504;SDS011;8870;50.950;11.762;2022-10-04T12:47:07;1.92;;;0.80;;
17504;SDS011;8870;50.950;11.762;2022-10-04T12:53:10;1.13;;;0.70;;
17504;SDS011;8870;50.950;11.762;2022-10-04T12:58:44;2.88;;;0.80;;
17504;SDS011;8870;50.950;11.762;2022-10-04T13:04:30;2.80;;;0.70;;
17504;SDS011;8870;50.950;11.762;2022-10-04T13:09:59;1.13;;;0.60;;
17504;SDS011;8870;50.950;11.762;2022-10-04T13:15:43;2.08;;;0.77;;
17504;SDS011;8870;50.950;11.762;2022-10-04T13:27:59;3.92;;;0.80;;
17504;SDS011;8870;50.950;11.762;2022-10-04T13:33:39;2.90;;;0.90;;
17504;SDS011;8870;50.950;11.762;2022-10-04T13:39:11;1.83;;;0.80;;
17504;SDS011;8870;50.950;11.762;2022-10-04T13:45:04;2.55;;;0.75;;
17504;SDS011;8870;50.950;11.762;2022-10-04T13:50:51;2.70;;;0.90;;
17504;SDS011;8870;50.950;11.762;2022-10-04T14:02:28;1.23;;;0.80;;
17504;SDS011;8870;50.950;11.762;2022-10-04T14:08:34;2.63;;;0.88;;
17504;SDS011;8870;50.950;11.762;2022-10-04T14:14:21;1.70;;;0.90;;
17504;SDS011;8870;50.950;11.762;2022-10-04T14:20:46;1.30;;;0.60;;
17504;SDS011;8870;50.950;11.762;2022-10-04T14:32:47;1.48;;;0.80;;
17504;SDS011;8870;50.950;11.762;2022-10-04T14:44:27;1.20;;;0.70;;
17504;SDS011;8870;50.950;11.762;2022-10-04T14:50:00;3.45;;;0.95;;
17504;SDS011;8870;50.950;11.762;2022-10-04T15:01:29;2.40;;;0.88;;
17504;SDS011;8870;50.950;11.762;2022-10-04T15:07:00;1.55;;;0.85;;
17504;SDS011;8870;50.950;11.762;2022-10-04T15:12:43;1.73;;;0.85;;
17504;SDS011;8870;50.950;11.762;2022-10-04T15:18:31;2.70;;;0.80;;
17504;SDS011;8870;50.950;11.762;2022-10-04T15:23:57;1.40;;;0.75;;
17504;SDS011;8870;50.950;11.762;2022-10-04T15:29:45;3.30;;;1.02;;
17504;SDS011;8870;50.950;11.762;2022-10-04T15:35:18;2.65;;;0.70;;
17504;SDS011;8870;50.950;11.762;2022-10-04T15:40:57;1.58;;;0.70;;
17504;SDS011;8870;50.950;11.762;2022-10-04T15:46:31;1.65;;;0.80;;
17504;SDS011;8870;50.950;11.762;2022-10-04T15:52:25;3.92;;;0.73;;
17504;SDS011;8870;50.950;11.762;2022-10-04T16:04:16;1.25;;;0.75;;
17504;SDS011;8870;50.950;11.762;2022-10-04T16:09:54;2.35;;;1.10;;
17504;SDS011;8870;50.950;11.762;2022-10-04T16:15:36;3.17;;;1.05;;
17504;SDS011;8870;50.950;11.762;2022-10-04T16:21:14;1.73;;;0.80;;
17504;SDS011;8870;50.950;11.762;2022-10-04T16:32:58;4.10;;;0.80;;
17504;SDS011;8870;50.950;11.762;2022-10-04T16:38:22;2.45;;;0.90;;
17504;SDS011;8870;50.950;11.762;2022-10-04T16:43:56;1.98;;;1.05;;
17504;SDS011;8870;50.950;11.762;2022-10-04T16:49:23;2.70;;;1.10;;
17504;SDS011;8870;50.950;11.762;2022-10-04T17:00:49;1.88;;;0.77;;
17504;SDS011;8870;50.950;11.762;2022-10-04T17:06:50;2.95;;;0.95;;
17504;SDS011;8870;50.950;11.762;2022-10-04T17:12:15;1.65;;;0.88;;
17504;SDS011;8870;50.950;11.762;2022-10-04T17:17:48;2.05;;;0.80;;
17504;SDS011;8870;50.950;11.762;2022-10-04T17:23:20;1.73;;;0.90;;
17504;SDS011;8870;50.950;11.762;2022-10-04T17:29:20;2.45;;;0.90;;
17504;SDS011;8870;50.950;11.762;2022-10-04T17:34:58;1.98;;;1.00;;
17504;SDS011;8870;50.950;11.762;2022-10-04T17:40:30;2.13;;;1.10;;
17504;SDS011;8870;50.950;11.762;2022-10-04T17:46:12;1.65;;;1.00;;
17504;SDS011;8870;50.950;11.762;2022-10-04T17:51:41;2.08;;;1.10;;
17504;SDS011;8870;50.950;11.762;2022-10-04T17:57:38;2.35;;;1.30;;
17504;SDS011;8870;50.950;11.762;2022-10-04T18:03:03;3.25;;;1.27;;
17504;SDS011;8870;50.950;11.762;2022-10-04T18:08:43;2.17;;;1.13;;
17504;SDS011;8870;50.950;11.762;2022-10-04T18:14:19;3.58;;;1.50;;
17504;SDS011;8870;50.950;11.762;2022-10-04T18:20:15;2.42;;;1.50;;
17504;SDS011;8870;50.950;11.762;2022-10-04T18:25:41;2.70;;;1.27;;
17504;SDS011;8870;50.950;11.762;2022-10-04T18:31:22;3.05;;;1.08;;
17504;SDS011;8870;50.950;11.762;2022-10-04T18:36:49;2.10;;;1.02;;
17504;SDS011;8870;50.950;11.762;2022-10-04T18:42:25;1.80;;;0.95;;
17504;SDS011;8870;50.950;11.762;2022-10-04T18:47:50;2.72;;;1.20;;
17504;SDS011;8870;50.950;11.762;2022-10-04T18:59:04;5.40;;;1.35;;
17504;SDS011;8870;50.950;11.762;2022-10-04T19:04:59;4.10;;;1.25;;
17504;SDS011;8870;50.950;11.762;2022-10-04T19:10:24;3.55;;;1.23;;
17504;SDS011;8870;50.950;11.762;2022-10-04T19:16:10;3.77;;;1.20;;
17504;SDS011;8870;50.950;11.762;2022-10-04T19:21:36;3.08;;;1.20;;
17504;SDS011;8870;50.950;11.762;2022-10-04T19:27:18;3.92;;;1.02;;
17504;SDS011;8870;50.950;11.762;2022-10-04T19:32:54;3.28;;;1.13;;
17504;SDS011;8870;50.950;11.762;2022-10-04T19:38:39;2.22;;;1.17;;
17504;SDS011;8870;50.950;11.762;2022-10-04T19:44:10;2.90;;;1.30;;
17504;SDS011;8870;50.950;11.762;2022-10-04T19:49:54;2.22;;;1.10;;
17504;SDS011;8870;50.950;11.762;2022-10-04T19:55:20;2.58;;;1.48;;
17504;SDS011;8870;50.950;11.762;2022-10-04T20:00:53;2.70;;;1.43;;
17504;SDS011;8870;50.950;11.762;2022-10-04T20:06:18;2.58;;;1.30;;
17504;SDS011;8870;50.950;11.762;2022-10-04T20:11:53;4.50;;;1.50;;
17504;SDS011;8870;50.950;11.762;2022-10-04T20:23:01;3.70;;;1.42;;
17504;SDS011;8870;50.950;11.762;2022-10-04T20:34:30;2.28;;;1.50;;
17504;SDS011;8870;50.950;11.762;2022-10-04T20:39:54;2.90;;;1.42;;
17504;SDS011;8870;50.950;11.762;2022-10-04T20:45:28;3.17;;;1.50;;
17504;SDS011;8870;50.950;11.762;2022-10-04T20:50:46;3.22;;;1.50;;
17504;SDS011;8870;50.950;11.762;2022-10-04T20:56:19;2.75;;;1.52;;
17504;SDS011;8870;50.950;11.762;2022-10-04T21:01:43;2.33;;;1.20;;
17504;SDS011;8870;50.950;11.762;2022-10-04T21:07:32;2.70;;;1.30;;
17504;SDS011;8870;50.950;11.762;2022-10-04T21:12:50;2.53;;;1.20;;
17504;SDS011;8870;50.950;11.762;2022-10-04T21:18:24;2.40;;;1.23;;
17504;SDS011;8870;50.950;11.762;2022-10-04T21:23:42;3.25;;;1.20;;
17504;SDS011;8870;50.950;11.762;2022-10-04T21:29:13;2.25;;;1.20;;
17504;SDS011;8870;50.950;11.762;2022-10-04T21:34:34;3.88;;;1.20;;
17504;SDS011;8870;50.950;11.762;2022-10-04T21:40:08;4.07;;;1.20;;
17504;SDS011;8870;50.950;11.762;2022-10-04T21:45:28;4.47;;;1.30;;
17504;SDS011;8870;50.950;11.762;2022-10-04T21:51:02;2.97;;;1.20;;
17504;SDS011;8870;50.950;11.762;2022-10-04T21:56:19;1.95;;;1.05;;
17504;SDS011;8870;50.950;11.762;2022-10-04T22:01:50;2.97;;;1.20;;
17504;SDS011;8870;50.950;11.762;2022-10-04T22:07:11;4.07;;;1.10;;
17504;SDS011;8870;50.950;11.762;2022-10-04T22:12:42;2.65;;;1.30;;
17504;SDS011;8870;50.950;11.762;2022-10-04T22:18:00;3.78;;;1.17;;
17504;SDS011;8870;50.950;11.762;2022-10-04T22:23:35;3.95;;;1.20;;
17504;SDS011;8870;50.950;11.762;2022-10-04T22:28:54;2.72;;;1.08;;
17504;SDS011;8870;50.950;11.762;2022-10-04T22:34:25;2.33;;;1.00;;
17504;SDS011;8870;50.950;11.762;2022-10-04T22:39:46;3.63;;;1.20;;
17504;SDS011;8870;50.950;11.762;2022-10-04T22:45:21;2.47;;;1.05;;
17504;SDS011;8870;50.950;11.762;2022-10-04T22:50:40;3.10;;;1.08;;
17504;SDS011;8870;50.950;11.762;2022-10-04T22:56:15;5.25;;;1.00;;
17504;SDS011;8870;50.950;11.762;2022-10-04T23:01:33;2.28;;;1.10;;
17504;SDS011;8870;50.950;11.762;2022-10-04T23:07:04;2.58;;;1.20;;
17504;SDS011;8870;50.950;11.762;2022-10-04T23:12:32;1.73;;;1.00;;
17504;SDS011;8870;50.950;11.762;2022-10-04T23:18:04;4.45;;;1.10;;
17504;SDS011;8870;50.950;11.762;2022-10-04T23:23:29;2.10;;;0.90;;
17504;SDS011;8870;50.950;11.762;2022-10-04T23:29:04;1.88;;;0.88;;
17504;SDS011;8870;50.950;11.762;2022-10-04T23:34:27;1.83;;;1.00;;
17504;SDS011;8870;50.950;11.762;2022-10-04T23:40:10;2.20;;;0.98;;
17504;SDS011;8870;50.950;11.762;2022-10-04T23:45:31;4.45;;;1.02;;
17504;SDS011;8870;50.950;11.762;2022-10-04T23:51:04;2.65;;;0.80;;
17504;SDS011;8870;50.950;11.762;2022-10-04T23:56:29;2.33;;;0.90;;
